This is the latest recevied weather packets stored in our database for station/object KD2SIG. If no packets are shown the sender has not sent any weather packets the latest 10 day(s).
| Time | Temp. | Humidity | Pressure | Rain* | Wind** | Luminosity | Snow |
|---|---|---|---|---|---|---|---|
| 1777973709 | 15° C | 84% | 1002.7 hPa | 0 mm | - | 0 W/m² | - |
| 1777973407 | 15° C | 83% | 1002.8 hPa | 0 mm | - | 0 W/m² | - |
| 1777973104 | 15.56° C | 83% | 1002.7 hPa | 0 mm | - | 0 W/m² | - |
| 1777972802 | 15.56° C | 82% | 1003 hPa | 1.78 mm | - | 0 W/m² | - |
| 1777972499 | 15.56° C | 81% | 1002.9 hPa | 4.83 mm | - | 0 W/m² | - |
| 1777972197 | 16.11° C | 79% | 1003 hPa | 3.05 mm | - | 0 W/m² | - |
| 1777971895 | 17.22° C | 73% | 1002.5 hPa | 0 mm | - | 0 W/m² | - |
| 1777971592 | 17.78° C | 70% | 1002.5 hPa | 0 mm | - | 0 W/m² | - |
| 1777971290 | 17.78° C | 68% | 1002.7 hPa | 0 mm | - | 0 W/m² | - |
| 1777970988 | 17.78° C | 68% | 1002.5 hPa | 0 mm | - | 0 W/m² | - |
| 1777970686 | 17.78° C | 69% | 1002.9 hPa | 0 mm | - | 0 W/m² | - |
| 1777970383 | 17.78° C | 69% | 1002.9 hPa | 0 mm | - | 0 W/m² | - |
| 1777970080 | 17.78° C | 67% | 1002.9 hPa | 0 mm | - | 0 W/m² | - |
| 1777969777 | 18.33° C | 64% | 1002.8 hPa | 0 mm | - | 0 W/m² | - |
| 1777969472 | 18.33° C | 63% | 1002.7 hPa | 0 mm | - | 0 W/m² | - |
| 1777969170 | 18.33° C | 63% | 1002.6 hPa | 0 mm | - | 0 W/m² | - |
| 1777968867 | 18.33° C | 64% | 1002.8 hPa | 0 mm | - | 0 W/m² | - |
| 1777968563 | 18.33° C | 63% | 1002.8 hPa | 0 mm | - | 0 W/m² | - |
| 1777968259 | 18.33° C | 62% | 1003 hPa | 0 mm | - | 0 W/m² | - |
| 1777967955 | 17.78° C | 63% | 1002.9 hPa | 0 mm | - | 0 W/m² | - |
| 1777967652 | 17.78° C | 63% | 1002.9 hPa | 0 mm | - | 0 W/m² | - |
| 1777967349 | 17.78° C | 62% | 1003 hPa | 0 mm | - | 0 W/m² | - |
| 1777967046 | 17.78° C | 63% | 1003.1 hPa | 0 mm | - | 0 W/m² | - |
| 1777966743 | 17.78° C | 62% | 1003.1 hPa | 0 mm | - | 0 W/m² | - |
| 1777966441 | 17.78° C | 62% | 1002.9 hPa | 0 mm | - | 0 W/m² | - |
* Rain latest hour (hover to see other rain measurements)
** Current wind speed in m/s (hover to see current wind gust speed)